Time;durP1;ratioP1;P1;durP2;ratioP2;P2;SDS_P1;SDS_P2;PMS_P1;PMS_P2;Temp;Humidity;BMP_temperature;BMP_pressure;BME280_temperature;BME280_humidity;BME280_pressure;Samples;Min_cycle;Max_cycle;Signal;HPM_P1;HPM_P2
2022/01/28 00:03:01;;;;;;;1.70;0.90;;;20.80;69.00;;;;;;7842888;28;20205;-53
2022/01/28 00:06:47;;;;;;;1.85;0.90;;;20.80;69.00;;;;;;7842465;28;20202;-54
2022/01/28 00:10:34;;;;;;;3.75;0.80;;;20.70;69.10;;;;;;7842302;28;20194;-55
2022/01/28 00:14:31;;;;;;;2.17;0.88;;;20.70;69.10;;;;;;7842736;28;20186;-55
2022/01/28 00:18:37;;;;;;;1.23;0.80;;;20.60;69.10;;;;;;7842257;28;20209;-55
2022/01/28 00:38:44;;;;;;;1.17;0.57;;;20.40;69.20;;;;;;7841491;28;20198;-54
2022/01/28 00:42:30;;;;;;;1.88;1.02;;;20.40;69.20;;;;;;7841845;28;20536;-51
2022/01/28 00:46:15;;;;;;;3.58;1.15;;;20.30;69.20;;;;;;7841593;28;20198;-51
2022/01/28 00:50:01;;;;;;;0.60;0.60;;;20.30;69.20;;;;;;7841303;28;20233;-53
2022/01/28 00:53:47;;;;;;;1.48;0.60;;;20.30;69.20;;;;;;7841729;28;20266;-52
2022/01/28 00:57:33;;;;;;;3.33;0.80;;;20.20;69.20;;;;;;7840662;28;20209;-53
2022/01/28 01:01:18;;;;;;;1.05;0.70;;;20.20;69.20;;;;;;7841359;28;20205;-51
2022/01/28 01:05:05;;;;;;;1.77;0.45;;;20.20;69.20;;;;;;7841294;28;20256;-51
2022/01/28 01:08:50;;;;;;;1.50;0.60;;;20.10;69.10;;;;;;7840995;28;20189;-52
2022/01/28 01:12:41;;;;;;;2.45;0.95;;;20.10;69.20;;;;;;7841212;28;20213;-56
2022/01/28 01:16:32;;;;;;;1.55;0.60;;;20.10;69.30;;;;;;7840853;28;20209;-52
2022/01/28 01:24:21;;;;;;;3.05;0.77;;;20.00;69.10;;;;;;7840317;28;20174;-52
2022/01/28 01:28:06;;;;;;;1.08;0.43;;;20.00;69.30;;;;;;7840245;28;20285;-54
2022/01/28 01:32:00;;;;;;;3.15;0.80;;;20.00;69.30;;;;;;7840393;28;20178;-55
2022/01/28 01:35:46;;;;;;;1.35;0.60;;;19.90;69.20;;;;;;7840207;28;20257;-53
2022/01/28 01:39:35;;;;;;;1.65;0.57;;;19.90;69.20;;;;;;7839875;28;20198;-53
2022/01/28 01:52:01;;;;;;;1.17;0.68;;;19.90;69.20;;;;;;7839881;28;20193;-54
2022/01/28 01:55:21;;;;;;;0.95;0.63;;;19.80;69.20;;;;;;7840433;28;20201;-57
2022/01/28 01:59:08;;;;;;;1.58;0.70;;;19.70;69.10;;;;;;7839626;28;20228;-55
2022/01/28 02:02:54;;;;;;;2.72;0.85;;;19.70;69.10;;;;;;7839978;28;20181;-53
2022/01/28 02:06:40;;;;;;;1.20;0.50;;;19.70;69.20;;;;;;7839689;28;20185;-56
2022/01/28 02:10:26;;;;;;;1.88;0.57;;;19.70;69.20;;;;;;7838214;28;20553;-57
2022/01/28 02:14:12;;;;;;;1.85;0.80;;;19.60;69.10;;;;;;7839219;28;20206;-54
2022/01/28 02:17:59;;;;;;;1.70;0.70;;;19.60;69.10;;;;;;7838793;28;20296;-56
2022/01/28 02:21:48;;;;;;;1.70;0.70;;;19.60;69.10;;;;;;7838959;28;20181;-57
2022/01/28 02:25:34;;;;;;;1.15;0.70;;;19.60;69.10;;;;;;7838776;28;20185;-56
2022/01/28 02:29:28;;;;;;;2.47;0.75;;;19.60;69.20;;;;;;7838336;28;20190;-56
2022/01/28 02:33:17;;;;;;;2.75;0.60;;;19.50;69.10;;;;;;7838760;28;20236;-55
2022/01/28 02:37:04;;;;;;;1.73;0.77;;;19.50;69.00;;;;;;7838578;28;20202;-54
2022/01/28 02:40:56;;;;;;;1.60;0.60;;;19.50;69.20;;;;;;7838207;28;20240;-52
2022/01/28 02:44:51;;;;;;;2.38;0.80;;;19.50;69.00;;;;;;7838378;28;20186;-52
2022/01/28 02:48:41;;;;;;;1.33;0.80;;;19.50;69.00;;;;;;7837914;28;20671;-54
2022/01/28 02:52:38;;;;;;;2.80;0.73;;;19.40;69.00;;;;;;7838312;28;20185;-54
2022/01/28 03:00:17;;;;;;;1.25;0.50;;;19.40;69.00;;;;;;7837840;28;20190;-54
2022/01/28 03:04:05;;;;;;;1.52;0.80;;;19.40;68.90;;;;;;7837927;28;20176;-52
2022/01/28 03:07:50;;;;;;;1.63;0.75;;;19.30;68.90;;;;;;7837901;28;20257;-52
2022/01/28 03:15:27;;;;;;;1.75;0.80;;;19.30;69.00;;;;;;7837857;28;20655;-52
2022/01/28 03:19:19;;;;;;;2.63;0.90;;;19.30;69.00;;;;;;7837418;28;20572;-53
2022/01/28 03:23:05;;;;;;;2.30;0.70;;;19.20;68.90;;;;;;7843180;28;20178;-52
2022/01/28 03:26:55;;;;;;;1.42;0.60;;;19.20;69.00;;;;;;7844127;28;20185;-52
2022/01/28 03:30:41;;;;;;;1.70;0.80;;;19.20;69.00;;;;;;7843504;28;20606;-55
2022/01/28 03:34:26;;;;;;;4.00;0.70;;;19.20;69.00;;;;;;7843662;28;20204;-55
2022/01/28 03:38:13;;;;;;;1.77;0.63;;;19.20;69.00;;;;;;7843190;28;20213;-55
2022/01/28 03:41:58;;;;;;;2.10;0.68;;;19.10;69.00;;;;;;7843582;28;20166;-57
2022/01/28 03:45:44;;;;;;;2.22;0.60;;;19.10;69.00;;;;;;7843287;28;20209;-54
2022/01/28 03:49:29;;;;;;;1.25;0.65;;;19.10;69.00;;;;;;7842995;28;20252;-52
2022/01/28 03:53:15;;;;;;;2.17;0.70;;;19.10;69.00;;;;;;7843283;28;20181;-51
2022/01/28 03:57:00;;;;;;;1.40;0.45;;;19.10;69.90;;;;;;7843020;28;20210;-53
2022/01/28 04:00:46;;;;;;;3.25;0.73;;;19.00;69.10;;;;;;7843173;28;20190;-55
2022/01/28 04:12:23;;;;;;;1.27;0.52;;;19.00;69.10;;;;;;7843226;28;20186;-56
2022/01/28 04:20:06;;;;;;;2.50;1.00;;;19.00;69.20;;;;;;7842299;28;20194;-54
2022/01/28 04:23:52;;;;;;;2.88;0.88;;;18.90;69.10;;;;;;7842250;28;20576;-55
2022/01/28 04:27:37;;;;;;;3.95;1.08;;;18.90;69.10;;;;;;7842017;28;20415;-55
2022/01/28 04:31:23;;;;;;;1.48;0.50;;;18.90;69.20;;;;;;7841853;28;20229;-55
2022/01/28 04:35:08;;;;;;;2.60;1.15;;;18.90;69.10;;;;;;7841194;28;20224;-56
2022/01/28 04:39:10;;;;;;;3.20;0.85;;;18.90;69.10;;;;;;7841640;28;20194;-55
2022/01/28 04:43:12;;;;;;;2.05;0.60;;;18.90;68.90;;;;;;7841902;28;20166;-54
2022/01/28 04:47:13;;;;;;;3.05;1.05;;;19.00;69.10;;;;;;7841560;28;20190;-53
2022/01/28 04:58:45;;;;;;;3.13;0.90;;;19.00;68.80;;;;;;7841151;28;20237;-54
2022/01/28 05:06:53;;;;;;;3.08;1.08;;;19.10;68.70;;;;;;7840311;28;20205;-52
2022/01/28 05:11:03;;;;;;;7.13;0.93;;;19.10;68.10;;;;;;7839589;28;20267;-53
2022/01/28 05:23:21;;;;;;;9.07;0.93;;;19.20;67.80;;;;;;7819657;28;20238;-53
2022/01/28 05:27:11;;;;;;;3.90;0.85;;;19.20;67.50;;;;;;7808827;28;20182;-52
2022/01/28 05:30:56;;;;;;;7.22;1.20;;;19.20;67.40;;;;;;7808135;28;20210;-51
2022/01/28 05:34:42;;;;;;;10.30;1.23;;;19.20;67.00;;;;;;7814334;28;20217;-53
2022/01/28 05:38:28;;;;;;;4.35;1.05;;;19.20;66.70;;;;;;7838739;28;20314;-55
2022/01/28 05:42:13;;;;;;;9.23;1.40;;;19.20;66.50;;;;;;7839488;28;20217;-51
2022/01/28 05:45:59;;;;;;;10.30;1.30;;;19.20;66.40;;;;;;7833814;28;20284;-53
2022/01/28 05:49:45;;;;;;;6.22;1.10;;;19.30;67.00;;;;;;7837131;28;20301;-52
2022/01/28 05:53:30;;;;;;;8.65;1.08;;;19.30;67.40;;;;;;7838409;28;20178;-55
2022/01/28 05:57:16;;;;;;;4.97;0.77;;;19.40;68.50;;;;;;7838731;28;20213;-54
2022/01/28 06:01:01;;;;;;;6.80;1.17;;;19.50;67.90;;;;;;7837864;28;20206;-52
2022/01/28 06:04:47;;;;;;;12.88;1.30;;;19.50;66.80;;;;;;7809757;28;20575;-54
2022/01/28 06:08:34;;;;;;;11.05;1.63;;;19.50;66.50;;;;;;7807221;28;20680;-55
2022/01/28 06:12:20;;;;;;;24.33;2.28;;;19.40;62.80;;;;;;7824001;28;20205;-56
2022/01/28 06:16:06;;;;;;;11.15;1.58;;;19.30;63.40;;;;;;7838080;28;20229;-52
2022/01/28 06:19:51;;;;;;;5.47;1.23;;;19.10;64.00;;;;;;7808047;28;20281;-55
2022/01/28 06:23:37;;;;;;;13.65;1.92;;;19.20;64.40;;;;;;7806804;28;20743;-51
2022/01/28 06:27:23;;;;;;;41.95;2.92;;;19.20;64.60;;;;;;7807124;28;20171;-56
2022/01/28 06:31:08;;;;;;;12.13;2.40;;;19.30;65.40;;;;;;7806410;28;20198;-55
2022/01/28 06:34:53;;;;;;;14.90;2.17;;;19.40;65.90;;;;;;7836739;28;20271;-56
2022/01/28 06:38:39;;;;;;;17.58;2.30;;;19.50;66.80;;;;;;7837154;28;20762;-55
2022/01/28 06:42:24;;;;;;;11.15;1.67;;;19.50;66.50;;;;;;7837662;28;20180;-54
2022/01/28 06:46:10;;;;;;;9.98;2.22;;;19.60;67.20;;;;;;7837476;28;20213;-55
2022/01/28 06:49:55;;;;;;;14.38;1.98;;;19.70;67.00;;;;;;7806123;28;20202;-52
2022/01/28 06:53:41;;;;;;;12.90;1.88;;;19.80;67.20;;;;;;7806232;28;20183;-53
2022/01/28 06:57:27;;;;;;;13.70;1.63;;;19.90;66.90;;;;;;7805799;28;20218;-55
2022/01/28 07:01:13;;;;;;;10.45;1.60;;;20.10;66.50;;;;;;7806361;28;20282;-52
2022/01/28 07:04:59;;;;;;;10.15;1.52;;;20.10;66.20;;;;;;7836311;28;20228;-56
2022/01/28 07:08:45;;;;;;;12.68;1.58;;;20.30;66.10;;;;;;7805765;28;20609;-52
2022/01/28 07:12:30;;;;;;;9.32;1.70;;;20.40;65.80;;;;;;7805747;28;20178;-54
2022/01/28 07:16:16;;;;;;;24.98;3.20;;;20.50;65.70;;;;;;7807229;28;20210;-51
2022/01/28 07:20:01;;;;;;;15.40;3.40;;;20.50;61.00;;;;;;7836678;28;20244;-53
2022/01/28 07:23:47;;;;;;;18.17;3.58;;;20.20;60.50;;;;;;7836821;28;20174;-56
2022/01/28 07:27:32;;;;;;;25.05;3.80;;;20.00;58.30;;;;;;7836556;28;20178;-52
2022/01/28 07:31:19;;;;;;;18.70;3.03;;;19.50;57.70;;;;;;7835218;28;20204;-52
2022/01/28 07:35:05;;;;;;;23.85;3.08;;;19.30;60.70;;;;;;7806364;28;20191;-51
2022/01/28 07:38:50;;;;;;;24.98;3.17;;;19.50;62.30;;;;;;7805840;28;20215;-51
2022/01/28 07:42:39;;;;;;;18.55;3.13;;;19.80;62.40;;;;;;7805704;28;20183;-55
2022/01/28 07:46:25;;;;;;;16.48;2.78;;;20.20;62.50;;;;;;7807026;28;20205;-51
2022/01/28 07:50:12;;;;;;;15.07;2.75;;;20.50;62.50;;;;;;7802445;28;20218;-51
2022/01/28 07:53:57;;;;;;;15.70;2.83;;;20.80;62.80;;;;;;7805617;28;20179;-52
2022/01/28 07:57:43;;;;;;;19.08;2.92;;;21.10;62.70;;;;;;7805168;28;20289;-54
2022/01/28 08:01:29;;;;;;;15.90;3.20;;;21.30;62.50;;;;;;7808817;28;20235;-55
2022/01/28 08:05:14;;;;;;;19.17;3.20;;;21.60;62.70;;;;;;7836234;28;20174;-54
2022/01/28 08:09:00;;;;;;;18.27;3.22;;;21.70;62.70;;;;;;7825459;28;20205;-56
2022/01/28 08:12:47;;;;;;;12.95;3.08;;;21.90;62.70;;;;;;7841799;28;20239;-52
2022/01/28 08:16:34;;;;;;;12.43;2.50;;;22.00;62.70;;;;;;7837016;28;20213;-54
2022/01/28 08:20:20;;;;;;;13.68;2.85;;;22.20;62.50;;;;;;7809778;28;20195;-56
2022/01/28 08:24:05;;;;;;;10.93;2.75;;;22.20;62.50;;;;;;7810517;28;20175;-55
2022/01/28 08:27:52;;;;;;;12.80;2.40;;;22.20;62.50;;;;;;7815343;28;20244;-53
2022/01/28 08:31:37;;;;;;;14.55;3.40;;;22.30;62.80;;;;;;7836242;28;20179;-55
2022/01/28 08:35:30;;;;;;;10.60;2.13;;;22.30;63.10;;;;;;7841225;28;20221;-54
2022/01/28 08:39:16;;;;;;;12.40;2.45;;;22.30;63.30;;;;;;7841018;28;20208;-52
2022/01/28 08:43:02;;;;;;;7.88;2.13;;;22.40;63.40;;;;;;7840523;28;20249;-54
2022/01/28 08:46:48;;;;;;;10.88;3.42;;;22.40;63.50;;;;;;7823379;28;20678;-54
2022/01/28 08:50:33;;;;;;;13.60;3.63;;;22.40;63.70;;;;;;7840129;28;20226;-56
2022/01/28 08:54:18;;;;;;;16.40;2.35;;;22.30;63.80;;;;;;7840900;28;20224;-52
2022/01/28 08:58:05;;;;;;;16.80;2.28;;;22.30;63.90;;;;;;7837796;28;20240;-53
2022/01/28 09:01:51;;;;;;;14.82;2.60;;;22.40;64.10;;;;;;7817057;28;20277;-53
2022/01/28 09:05:36;;;;;;;9.43;1.77;;;22.30;64.00;;;;;;7840311;28;20181;-52
2022/01/28 09:09:22;;;;;;;10.48;2.08;;;22.30;64.10;;;;;;7840078;28;20267;-51
2022/01/28 09:16:53;;;;;;;16.83;2.20;;;22.10;59.80;;;;;;7816487;28;20206;-52
2022/01/28 09:20:39;;;;;;;8.50;2.08;;;22.00;63.80;;;;;;7836101;28;20198;-54
2022/01/28 09:24:24;;;;;;;11.02;1.73;;;21.90;63.80;;;;;;7829855;28;20214;-54
2022/01/28 09:28:10;;;;;;;14.70;1.75;;;21.90;63.80;;;;;;7826477;28;20209;-53
2022/01/28 09:31:55;;;;;;;12.57;1.70;;;22.00;64.00;;;;;;7830085;28;20198;-54
2022/01/28 09:35:41;;;;;;;13.40;2.13;;;21.90;64.00;;;;;;7808536;28;20348;-52
2022/01/28 09:39:29;;;;;;;15.13;2.00;;;21.90;64.20;;;;;;7808554;28;20281;-52
2022/01/28 09:43:15;;;;;;;19.77;2.13;;;21.80;64.20;;;;;;7811172;28;20279;-52
2022/01/28 09:47:01;;;;;;;11.18;2.50;;;21.80;64.10;;;;;;7807713;28;20194;-52
2022/01/28 09:50:46;;;;;;;14.70;1.88;;;21.90;64.40;;;;;;7807362;28;20210;-51
2022/01/28 09:54:32;;;;;;;8.60;1.80;;;21.90;64.40;;;;;;7821199;28;20789;-52
2022/01/28 09:58:19;;;;;;;17.30;2.53;;;21.90;64.40;;;;;;7807175;28;20210;-51
2022/01/28 10:02:05;;;;;;;9.25;2.13;;;22.00;64.40;;;;;;7818190;28;20182;-52
2022/01/28 10:05:51;;;;;;;7.32;1.85;;;22.10;64.40;;;;;;7838159;28;20269;-55
2022/01/28 10:09:37;;;;;;;5.68;1.90;;;22.20;65.20;;;;;;7807595;28;20202;-52
2022/01/28 10:13:39;;;;;;;6.88;1.70;;;22.30;64.40;;;;;;7831396;28;20300;-51
2022/01/28 10:17:25;;;;;;;6.22;1.48;;;22.30;64.20;;;;;;7824168;28;20616;-52
2022/01/28 10:21:20;;;;;;;8.50;2.13;;;22.40;64.10;;;;;;7806563;28;20217;-53
2022/01/28 10:25:06;;;;;;;7.53;2.00;;;22.50;64.10;;;;;;7807024;28;20177;-51
2022/01/28 10:28:52;;;;;;;8.57;2.00;;;22.60;64.00;;;;;;7806729;28;20202;-52
2022/01/28 10:32:38;;;;;;;7.57;1.92;;;22.60;64.00;;;;;;7816609;28;20197;-51
2022/01/28 10:36:24;;;;;;;4.10;1.52;;;22.60;63.90;;;;;;7832928;28;20248;-52
2022/01/28 10:40:10;;;;;;;7.38;1.73;;;22.60;63.90;;;;;;7837337;28;20190;-57
2022/01/28 10:43:57;;;;;;;9.40;2.47;;;22.60;64.00;;;;;;7837534;28;20217;-57
2022/01/28 10:47:45;;;;;;;10.82;1.70;;;22.60;64.10;;;;;;7819986;28;20741;-56
2022/01/28 10:51:42;;;;;;;12.00;2.10;;;22.60;64.20;;;;;;7806347;28;20174;-56
2022/01/28 10:55:30;;;;;;;7.68;1.92;;;22.60;64.20;;;;;;7806439;28;20258;-56
2022/01/28 10:59:18;;;;;;;9.80;1.92;;;22.60;64.00;;;;;;7805938;28;20194;-55
2022/01/28 11:03:05;;;;;;;15.70;2.85;;;22.40;63.50;;;;;;7826534;28;20178;-52
2022/01/28 11:06:54;;;;;;;13.38;2.58;;;22.00;57.10;;;;;;7837707;28;20189;-55
2022/01/28 11:10:41;;;;;;;13.13;2.83;;;21.70;61.10;;;;;;7836876;28;20194;-54
2022/01/28 11:14:27;;;;;;;8.88;2.00;;;21.70;62.30;;;;;;7837584;28;20177;-55
2022/01/28 11:18:15;;;;;;;8.68;1.83;;;21.70;62.70;;;;;;7815569;28;20221;-55
2022/01/28 11:22:13;;;;;;;9.15;2.20;;;21.80;63.00;;;;;;7803269;28;20206;-59
2022/01/28 11:26:14;;;;;;;9.70;2.13;;;21.90;63.20;;;;;;7806087;28;20185;-55
2022/01/28 11:30:28;;;;;;;12.13;2.53;;;21.90;63.80;;;;;;7805831;28;20746;-55
2022/01/28 11:34:21;;;;;;;23.75;2.58;;;22.00;63.50;;;;;;7836451;28;20281;-52
2022/01/28 11:38:25;;;;;;;16.92;3.15;;;22.10;63.50;;;;;;7836274;28;20210;-51
2022/01/28 11:42:25;;;;;;;10.73;2.33;;;22.30;64.10;;;;;;7834147;28;20182;-55
2022/01/28 11:46:22;;;;;;;14.43;2.60;;;22.40;63.80;;;;;;7816756;28;20577;-54
2022/01/28 11:50:17;;;;;;;21.63;2.78;;;22.50;63.90;;;;;;7841817;28;20572;-53
2022/01/28 11:54:07;;;;;;;26.70;2.65;;;22.70;64.60;;;;;;7842491;28;20258;-52
2022/01/28 11:58:05;;;;;;;14.70;2.20;;;22.80;65.10;;;;;;7842045;28;20267;-54
2022/01/28 12:01:53;;;;;;;11.35;2.30;;;22.80;63.70;;;;;;7830804;28;20186;-54
2022/01/28 12:05:38;;;;;;;14.93;2.63;;;22.90;64.90;;;;;;7811086;28;20539;-54
2022/01/28 12:09:25;;;;;;;12.00;1.83;;;23.10;64.70;;;;;;7810666;28;20266;-54
2022/01/28 12:13:16;;;;;;;26.30;2.60;;;23.20;64.70;;;;;;7810477;28;20182;-54
2022/01/28 12:17:30;;;;;;;16.92;2.50;;;23.30;64.70;;;;;;7823781;28;20278;-52
2022/01/28 12:21:18;;;;;;;15.88;1.95;;;23.30;64.70;;;;;;7840794;28;20281;-52
2022/01/28 12:25:36;;;;;;;9.68;1.92;;;23.40;64.60;;;;;;7840408;28;20175;-54
2022/01/28 12:29:35;;;;;;;19.15;2.42;;;23.40;64.50;;;;;;7841142;28;20208;-52
2022/01/28 12:33:23;;;;;;;14.65;2.67;;;23.40;63.70;;;;;;7816957;28;20228;-52
2022/01/28 12:37:09;;;;;;;17.52;2.83;;;22.70;57.20;;;;;;7809670;28;20214;-56
2022/01/28 12:40:57;;;;;;;8.20;2.25;;;22.50;60.90;;;;;;7809400;28;20205;-56
2022/01/28 12:44:42;;;;;;;12.23;2.50;;;22.60;61.50;;;;;;7809937;28;20190;-52
2022/01/28 12:48:28;;;;;;;11.13;2.53;;;22.80;62.00;;;;;;7834805;28;20286;-57
2022/01/28 12:52:14;;;;;;;12.52;2.25;;;23.00;62.20;;;;;;7840289;28;20213;-55
2022/01/28 12:56:00;;;;;;;8.75;1.95;;;23.10;62.10;;;;;;7839823;28;20630;-57
2022/01/28 12:59:47;;;;;;;9.02;2.00;;;23.10;62.40;;;;;;7840312;28;20206;-55
2022/01/28 13:03:38;;;;;;;11.23;2.17;;;23.20;62.40;;;;;;7813647;28;20723;-56
2022/01/28 13:11:39;;;;;;;12.48;2.20;;;23.20;62.70;;;;;;7811347;28;20262;-52
2022/01/28 13:15:24;;;;;;;9.23;1.73;;;23.20;62.90;;;;;;7816925;28;20602;-52
2022/01/28 13:19:12;;;;;;;11.73;2.30;;;23.20;63.00;;;;;;7808698;28;20191;-54
2022/01/28 13:22:57;;;;;;;8.23;2.25;;;23.20;63.10;;;;;;7806248;28;20582;-52
2022/01/28 13:27:07;;;;;;;11.95;1.98;;;23.10;63.20;;;;;;7808731;28;20187;-53
2022/01/28 13:30:56;;;;;;;6.50;1.48;;;23.10;63.60;;;;;;7834457;28;20286;-54
2022/01/28 13:34:48;;;;;;;11.70;2.08;;;23.00;63.60;;;;;;7816605;28;20182;-52
2022/01/28 13:38:38;;;;;;;6.00;1.80;;;23.10;63.70;;;;;;7839191;28;20210;-53
2022/01/28 13:42:24;;;;;;;8.63;1.80;;;23.00;63.80;;;;;;7839097;28;20180;-56
2022/01/28 13:46:14;;;;;;;9.68;1.98;;;23.00;64.00;;;;;;7831664;28;20195;-53
2022/01/28 13:49:59;;;;;;;8.20;2.10;;;22.90;63.70;;;;;;7807925;28;20206;-55
2022/01/28 13:54:20;;;;;;;3.75;1.55;;;22.80;63.60;;;;;;7807754;28;20240;-52
2022/01/28 13:58:05;;;;;;;11.32;2.28;;;22.80;63.80;;;;;;7807059;28;20593;-54
2022/01/28 14:01:54;;;;;;;11.85;2.40;;;22.60;56.20;;;;;;7820832;28;20243;-59
2022/01/28 14:05:58;;;;;;;16.45;3.00;;;22.10;57.10;;;;;;7834543;28;20411;-48
2022/01/28 14:09:43;;;;;;;16.63;2.63;;;21.90;60.30;;;;;;7838218;28;20645;-48
2022/01/28 14:13:29;;;;;;;9.32;3.05;;;22.00;60.50;;;;;;7835807;28;20169;-49
2022/01/28 14:17:14;;;;;;;20.73;2.58;;;22.20;60.90;;;;;;7837890;28;20208;-54
2022/01/28 14:21:00;;;;;;;10.98;2.28;;;22.30;61.10;;;;;;7837118;28;20186;-56
2022/01/28 14:24:45;;;;;;;17.50;2.45;;;22.50;61.10;;;;;;7821207;28;20232;-55
2022/01/28 14:28:39;;;;;;;8.45;2.33;;;22.60;60.90;;;;;;7807581;28;20245;-55
2022/01/28 14:32:25;;;;;;;20.75;2.53;;;22.80;60.90;;;;;;7807441;28;20175;-52
2022/01/28 14:36:10;;;;;;;5.78;2.17;;;22.90;60.70;;;;;;7806762;28;20290;-56
2022/01/28 14:39:56;;;;;;;10.00;2.03;;;23.00;60.50;;;;;;7807235;28;20683;-57
2022/01/28 14:43:42;;;;;;;13.63;2.28;;;23.00;60.50;;;;;;7807676;28;20183;-57
2022/01/28 14:47:27;;;;;;;7.53;2.10;;;23.00;60.50;;;;;;7807182;28;20201;-56
2022/01/28 14:51:13;;;;;;;8.30;2.13;;;23.10;60.50;;;;;;7807287;28;20205;-53
2022/01/28 14:54:59;;;;;;;13.77;2.30;;;23.00;60.50;;;;;;7807929;28;20186;-54
2022/01/28 14:58:46;;;;;;;7.50;1.92;;;23.00;60.50;;;;;;7807156;28;20206;-54
2022/01/28 15:02:31;;;;;;;9.15;1.70;;;23.00;60.60;;;;;;7807683;28;20633;-54
2022/01/28 15:06:17;;;;;;;5.45;1.77;;;23.00;60.80;;;;;;7807429;28;20545;-56
2022/01/28 15:10:04;;;;;;;4.70;1.50;;;22.90;60.80;;;;;;7806811;28;20702;-55
2022/01/28 15:13:50;;;;;;;8.80;2.28;;;22.90;60.90;;;;;;7807053;28;20257;-56
2022/01/28 15:17:35;;;;;;;6.30;1.83;;;22.90;61.00;;;;;;7826217;28;20221;-54
2022/01/28 15:21:21;;;;;;;5.55;2.15;;;22.80;61.10;;;;;;7844099;28;20190;-52
2022/01/28 15:25:07;;;;;;;5.45;1.60;;;22.80;61.20;;;;;;7839318;28;20189;-53
2022/01/28 15:29:01;;;;;;;10.68;2.65;;;22.70;61.00;;;;;;7812470;28;20281;-51
2022/01/28 15:36:50;;;;;;;7.05;1.85;;;22.60;61.40;;;;;;7812609;28;20671;-52
2022/01/28 15:40:36;;;;;;;11.05;1.70;;;22.60;61.50;;;;;;7812538;28;20548;-52
2022/01/28 15:44:24;;;;;;;8.25;1.83;;;22.60;61.50;;;;;;7812842;28;20167;-55
2022/01/28 15:48:09;;;;;;;12.00;2.40;;;22.60;61.60;;;;;;7811966;28;20730;-54
2022/01/28 15:51:55;;;;;;;10.05;1.83;;;22.60;61.60;;;;;;7812490;28;20529;-52
2022/01/28 15:55:41;;;;;;;4.90;1.90;;;22.70;61.50;;;;;;7812294;28;20179;-53
2022/01/28 15:59:27;;;;;;;5.30;1.75;;;22.70;61.50;;;;;;7812285;28;20199;-52
2022/01/28 16:03:12;;;;;;;6.90;1.77;;;22.80;61.40;;;;;;7811833;28;20178;-52
2022/01/28 16:06:59;;;;;;;8.10;2.10;;;22.90;61.30;;;;;;7812092;28;20185;-54
2022/01/28 16:11:12;;;;;;;6.80;2.03;;;22.90;61.00;;;;;;7811656;28;20574;-55
2022/01/28 16:14:53;;;;;;;7.15;1.75;;;23.10;61.00;;;;;;7812169;28;20236;-53
2022/01/28 16:18:40;;;;;;;6.93;1.88;;;23.10;60.80;;;;;;7811798;28;20198;-57
2022/01/28 16:22:26;;;;;;;9.38;1.77;;;23.20;60.80;;;;;;7812149;28;20171;-52
2022/01/28 16:26:12;;;;;;;7.15;1.98;;;23.30;60.70;;;;;;7811850;28;20205;-56
2022/01/28 16:29:58;;;;;;;8.63;1.65;;;23.30;60.70;;;;;;7810097;28;20238;-52
2022/01/28 16:33:43;;;;;;;6.90;1.95;;;23.40;60.60;;;;;;7811370;28;20187;-56
2022/01/28 16:37:30;;;;;;;9.23;2.30;;;23.30;60.50;;;;;;7811039;28;20214;-53
2022/01/28 16:41:16;;;;;;;10.48;2.28;;;23.40;60.50;;;;;;7811031;28;20194;-53
2022/01/28 16:45:02;;;;;;;11.68;2.80;;;23.30;60.60;;;;;;7810884;28;20217;-57
2022/01/28 16:48:47;;;;;;;25.02;4.30;;;23.30;60.70;;;;;;7810709;28;20233;-54
2022/01/28 16:52:34;;;;;;;28.50;5.38;;;23.20;60.70;;;;;;7810768;28;20214;-56
2022/01/28 16:56:19;;;;;;;34.30;6.05;;;23.20;60.80;;;;;;7810568;28;20214;-55
2022/01/28 17:00:06;;;;;;;47.92;5.88;;;23.20;60.90;;;;;;7811996;28;20211;-57
2022/01/28 17:03:52;;;;;;;36.13;6.22;;;23.10;60.90;;;;;;7810498;28;20209;-55
2022/01/28 17:07:37;;;;;;;35.20;5.07;;;23.10;61.00;;;;;;7810301;28;20183;-56
2022/01/28 17:11:27;;;;;;;37.97;6.55;;;23.00;61.00;;;;;;7810181;28;20230;-57
2022/01/28 17:15:13;;;;;;;39.97;5.85;;;23.00;61.10;;;;;;7810038;28;20683;-55
2022/01/28 17:18:59;;;;;;;35.00;5.78;;;23.00;61.20;;;;;;7809620;28;20580;-56
2022/01/28 17:22:45;;;;;;;44.33;7.97;;;22.90;61.00;;;;;;7809876;28;20629;-55
2022/01/28 17:26:30;;;;;;;46.35;7.63;;;22.80;61.20;;;;;;7809667;28;20544;-52
2022/01/28 17:30:17;;;;;;;36.25;7.20;;;22.80;61.40;;;;;;7809273;28;20680;-52
2022/01/28 17:34:02;;;;;;;37.35;7.32;;;22.70;61.20;;;;;;7809507;28;20671;-52
2022/01/28 17:37:48;;;;;;;33.83;6.10;;;22.70;61.50;;;;;;7808977;28;20632;-53
2022/01/28 17:41:34;;;;;;;42.90;6.70;;;22.70;61.70;;;;;;7809071;28;20186;-51
2022/01/28 17:45:20;;;;;;;46.65;7.20;;;22.60;61.40;;;;;;7809110;28;20240;-59
2022/01/28 17:49:05;;;;;;;51.58;6.78;;;22.50;61.40;;;;;;7808802;28;20229;-55
2022/01/28 17:52:53;;;;;;;50.05;7.00;;;22.50;61.30;;;;;;7809076;28;20297;-53
2022/01/28 17:56:39;;;;;;;40.53;6.45;;;22.50;61.50;;;;;;7808941;28;20256;-54
2022/01/28 18:00:24;;;;;;;47.83;7.43;;;22.40;61.70;;;;;;7808731;28;20190;-52
2022/01/28 18:04:10;;;;;;;33.20;5.90;;;22.50;61.40;;;;;;7816482;28;20555;-54
2022/01/28 18:07:56;;;;;;;238.25;21.08;;;22.40;61.70;;;;;;7839680;28;20583;-53
2022/01/28 18:11:41;;;;;;;152.93;15.20;;;22.30;58.50;;;;;;7839880;28;20261;-57
2022/01/28 18:15:27;;;;;;;131.90;18.42;;;22.10;59.90;;;;;;7839786;28;20527;-52
2022/01/28 18:19:12;;;;;;;61.95;9.48;;;22.10;61.20;;;;;;7838870;28;20715;-54
2022/01/28 18:22:59;;;;;;;638.47;44.65;;;22.20;61.50;;;;;;7839110;28;20197;-55
2022/01/28 18:26:44;;;;;;;92.40;10.82;;;22.20;61.30;;;;;;7839168;28;20239;-55
2022/01/28 18:30:30;;;;;;;114.00;11.88;;;22.30;62.20;;;;;;7838464;28;20232;-57
2022/01/28 18:34:15;;;;;;;107.47;11.77;;;22.30;62.10;;;;;;7838744;28;20186;-55
2022/01/28 18:38:01;;;;;;;185.00;14.80;;;22.30;62.20;;;;;;7838280;28;20742;-54
2022/01/28 18:41:48;;;;;;;178.20;14.18;;;22.40;62.20;;;;;;7838505;28;20663;-52
2022/01/28 18:45:41;;;;;;;170.13;14.63;;;22.40;62.50;;;;;;7838467;28;20741;-56
2022/01/28 18:49:27;;;;;;;125.50;13.60;;;22.50;62.70;;;;;;7838321;28;20197;-55
2022/01/28 18:53:14;;;;;;;116.65;13.75;;;22.50;62.80;;;;;;7837668;28;20205;-57
2022/01/28 18:56:59;;;;;;;119.10;13.38;;;22.60;63.20;;;;;;7838164;28;20323;-57
2022/01/28 19:00:45;;;;;;;116.47;10.88;;;22.70;63.50;;;;;;7837951;28;20194;-57
2022/01/28 19:04:30;;;;;;;97.57;10.55;;;22.70;63.70;;;;;;7838052;28;20177;-57
2022/01/28 19:08:16;;;;;;;90.07;10.45;;;22.90;63.70;;;;;;7836171;28;20574;-56
2022/01/28 19:12:02;;;;;;;93.22;9.32;;;22.80;63.00;;;;;;7830475;28;20185;-55
2022/01/28 19:15:47;;;;;;;90.07;9.27;;;22.90;64.30;;;;;;7836715;28;20178;-55
2022/01/28 19:19:33;;;;;;;67.00;9.38;;;22.90;64.80;;;;;;7836653;28;20226;-57
2022/01/28 19:23:18;;;;;;;84.97;10.40;;;23.00;64.80;;;;;;7831365;28;20485;-49
2022/01/28 19:27:05;;;;;;;74.13;10.03;;;22.80;65.30;;;;;;7806241;28;20417;-54
2022/01/28 19:30:50;;;;;;;62.25;8.45;;;22.80;65.40;;;;;;7806590;28;20207;-52
2022/01/28 19:34:37;;;;;;;59.30;8.32;;;22.90;65.10;;;;;;7805706;28;20244;-55
2022/01/28 19:38:23;;;;;;;51.20;8.90;;;23.00;64.50;;;;;;7807746;28;20222;-53
2022/01/28 19:42:08;;;;;;;95.78;15.95;;;23.10;64.10;;;;;;7836733;28;20235;-53
2022/01/28 19:46:01;;;;;;;48.20;8.05;;;23.00;58.30;;;;;;7814332;28;20201;-55
2022/01/28 19:49:47;;;;;;;61.28;8.60;;;22.60;60.70;;;;;;7805466;28;20730;-55
2022/01/28 19:53:32;;;;;;;59.03;8.23;;;22.50;63.10;;;;;;7808326;28;20594;-54
2022/01/28 19:57:18;;;;;;;54.80;8.60;;;22.50;63.20;;;;;;7836283;28;20209;-54
2022/01/28 20:01:04;;;;;;;63.22;7.88;;;22.60;64.20;;;;;;7836265;28;20194;-56
2022/01/28 20:04:49;;;;;;;48.85;7.82;;;22.60;63.20;;;;;;7840802;28;20236;-53
2022/01/28 20:08:35;;;;;;;48.28;6.63;;;22.70;63.20;;;;;;7837219;28;20207;-56
2022/01/28 20:12:20;;;;;;;42.90;7.72;;;22.70;63.80;;;;;;7810783;28;20184;-56
2022/01/28 20:16:06;;;;;;;39.30;8.20;;;22.80;64.50;;;;;;7810463;28;20198;-52
2022/01/28 20:19:52;;;;;;;37.83;7.18;;;22.80;65.40;;;;;;7810417;28;20203;-55
2022/01/28 20:23:38;;;;;;;35.67;6.70;;;22.90;66.40;;;;;;7815745;28;20263;-52
2022/01/28 20:27:24;;;;;;;35.58;6.88;;;23.10;66.40;;;;;;7841576;28;20178;-56
2022/01/28 20:31:09;;;;;;;30.98;6.65;;;23.20;66.30;;;;;;7841024;28;20205;-56
2022/01/28 20:34:55;;;;;;;44.97;7.05;;;23.40;66.10;;;;;;7841049;28;20189;-54
2022/01/28 20:38:43;;;;;;;40.60;6.95;;;23.50;66.00;;;;;;7835174;28;20292;-52
2022/01/28 20:42:29;;;;;;;39.63;7.88;;;23.60;65.70;;;;;;7809946;28;20171;-57
2022/01/28 20:46:14;;;;;;;36.35;6.43;;;23.60;65.40;;;;;;7809430;28;20719;-56
2022/01/28 20:50:00;;;;;;;36.45;5.80;;;23.60;66.30;;;;;;7809664;28;20830;-52
2022/01/28 20:53:46;;;;;;;38.25;5.93;;;23.60;66.40;;;;;;7816065;28;20200;-55
2022/01/28 20:57:31;;;;;;;28.83;5.90;;;23.70;66.70;;;;;;7840253;28;20263;-56